Latest Weather Observations for Leinster

IDW60801

Issued at 7:03 pm WST Friday 6 March 2015 (issued every 30 minutes, with the page automatically refreshed every 10 minutes)

About weather observations | Map of weather stations | Latest weather observations for WA | Other Formats
Station Details ID: 012314 Name: LEINSTER AERO Lat: -27.84 Lon: 120.70 Height: 497.0 m
Data from the previous 72 hours. | See also: Recent months at Leinster
Date/Time
WST
Temp
°C
App
Temp
°C
Dew
Point
Rel
Hum
%
Delta-T
°C
Wind Press
QNH
hPa
Press
MSL
hPa
Rain
since 9 am
mm
Dir
 
Spd
km/h
Gust
km/h
Spd
kts
Gust
kts
06/07:00pm 17.6 16.5 17.4 99 0.1 ESE 19 28 10 15 - - -
06/06:30pm 17.8 17.2 17.6 99 0.1 ESE 17 24 9 13 - - -
06/06:00pm 17.9 18.5 17.7 99 0.1 ESE 11 17 6 9 - - -
06/05:36pm 17.9 18.5 17.7 99 0.1 ESE 11 15 6 8 - - -
06/05:30pm 17.9 18.5 17.7 99 0.1 E 11 17 6 9 - - -
06/05:00pm 17.9 18.1 17.7 99 0.1 ESE 13 19 7 10 - - -
06/04:30pm 18.1 18.0 17.9 99 0.1 SE 15 20 8 11 - - -
06/04:16pm 18.1 18.4 17.9 99 0.1 SE 13 20 7 11 - - -
06/04:15pm 18.1 18.4 17.9 99 0.1 SE 13 20 7 11 - - -
06/04:00pm 18.1 18.8 17.9 99 0.1 ESE 11 17 6 9 - - -
06/03:36pm 18.0 19.0 17.8 99 0.1 ESE 9 15 5 8 - - -
06/03:30pm 18.0 19.0 17.8 99 0.1 ESE 9 13 5 7 - - -
06/03:20pm 17.9 18.5 17.7 99 0.1 ESE 11 17 6 9 - - -
06/03:00pm 18.0 19.0 17.7 98 0.2 E 9 13 5 7 - - -
06/02:30pm 17.8 17.9 17.5 98 0.2 ESE 13 19 7 10 - - -
06/02:04pm 17.9 18.1 17.6 98 0.2 ESE 13 19 7 10 - - -
06/02:00pm 17.8 17.9 17.5 98 0.2 ESE 13 19 7 10 - - -
06/01:32pm 17.8 17.9 17.5 98 0.2 ESE 13 20 7 11 - - -
06/01:30pm 17.8 17.9 17.5 98 0.2 ESE 13 20 7 11 - - -
06/01:00pm 17.5 17.5 17.2 98 0.2 ESE 13 20 7 11 - - -
06/12:46pm 17.2 16.3 16.9 98 0.2 ESE 17 24 9 13 - - -
06/12:41pm 17.1 16.2 16.8 98 0.2 ESE 17 22 9 12 - - -
06/12:30pm 17.1 16.6 16.8 98 0.2 ESE 15 20 8 11 - - -
06/12:04pm 17.0 16.8 16.7 98 0.2 ESE 13 19 7 10 - - -
06/12:00pm 16.9 16.3 16.6 98 0.2 ESE 15 22 8 12 - - -
06/11:30am 16.6 15.9 16.3 98 0.2 ESE 15 20 8 11 - - -
06/11:00am 16.4 16.7 16.1 98 0.2 ESE 9 15 5 8 - - -
06/10:30am 16.5 16.9 16.2 98 0.2 ESE 9 13 5 7 - - -
06/10:00am 16.5 16.1 16.2 98 0.2 E 13 19 7 10 - - -
06/09:30am 16.9 15.2 14.7 87 1.3 ESE 17 20 9 11 - - -
06/09:00am 17.2 15.4 14.5 84 1.6 SE 17 22 9 12 - - -
06/08:30am 16.8 14.5 14.6 87 1.3 SE 20 30 11 16 - - -
06/08:00am 16.5 14.1 15.4 93 0.7 SSE 22 28 12 15 - - -
06/07:30am 16.3 14.7 16.0 98 0.2 SSE 19 24 10 13 - - -
06/07:27am 16.2 14.4 15.9 98 0.2 SSE 20 24 11 13 - - -
06/07:00am 15.7 14.3 15.5 99 0.1 SSE 17 24 9 13 - - -
06/06:30am 16.0 15.0 15.7 98 0.2 S 15 20 8 11 - - -
06/06:00am 15.9 15.7 15.6 98 0.2 SE 11 15 6 8 - - -
06/05:30am 15.5 14.0 15.3 99 0.1 ESE 17 26 9 14 - - -
06/05:27am 15.5 14.0 15.3 99 0.1 ESE 17 22 9 12 - - -
06/05:01am 15.6 14.1 15.4 99 0.1 ESE 17 22 9 12 - - -
06/05:00am 15.6 14.1 15.4 99 0.1 ESE 17 22 9 12 - - -
06/04:54am 15.7 14.7 15.5 99 0.1 ESE 15 22 8 12 - - -
06/04:43am 15.7 14.3 15.5 99 0.1 ESE 17 24 9 13 - - -
06/04:30am 15.8 14.4 15.6 99 0.1 ESE 17 24 9 13 - - -
06/04:00am 15.8 14.8 15.6 99 0.1 ESE 15 24 8 13 - - -
06/03:30am 15.7 14.3 15.5 99 0.1 ESE 17 24 9 13 - - -
06/03:00am 15.7 15.0 15.5 99 0.1 ESE 13 24 7 13 - - -
06/02:30am 15.5 14.8 15.3 99 0.1 ESE 13 20 7 11 - - -
06/02:27am 15.5 14.8 15.3 99 0.1 ESE 13 20 7 11 - - -
06/02:00am 15.5 14.4 15.3 99 0.1 ESE 15 22 8 12 - - -
06/01:51am 15.6 14.1 15.3 98 0.2 ESE 17 22 9 12 - - -
06/01:30am 15.7 13.7 15.4 98 0.2 SE 20 28 11 15 - - -
06/01:00am 15.9 13.9 15.6 98 0.2 SE 20 28 11 15 - - -
06/12:30am 15.9 14.5 15.6 98 0.2 SE 17 24 9 13 - - -
06/12:00am 15.9 15.3 15.6 98 0.2 ESE 13 20 7 11 - - -
 
Date/Time
WST
Temp
°C
App
Temp
°C
Dew
Point
Rel
Hum
%
Delta-T
°C
Wind Press
QNH
hPa
Press
MSL
hPa
Rain
since 9 am
mm
Dir
 
Spd
km/h
Gust
km/h
Spd
kts
Gust
kts
05/11:30pm 15.9 14.5 15.6 98 0.2 E 17 26 9 14 - - -
05/11:00pm 15.9 14.9 15.6 98 0.2 E 15 24 8 13 - - -
05/10:30pm 15.8 14.4 15.5 98 0.2 ESE 17 24 9 13 - - -
05/10:00pm 15.8 14.0 15.5 98 0.2 ESE 19 33 10 18 - - -
05/09:30pm 15.8 14.0 15.5 98 0.2 ESE 19 28 10 15 - - -
05/09:00pm 15.7 14.2 15.4 98 0.2 ESE 17 26 9 14 - - -
05/08:30pm 15.6 14.1 15.3 98 0.2 ESE 17 26 9 14 - - -
05/08:00pm 15.4 13.8 15.1 98 0.2 ESE 17 28 9 15 - - -
05/07:30pm 15.4 12.9 15.1 98 0.2 SE 22 32 12 17 - - -
05/07:05pm 15.3 12.7 14.8 97 0.3 SE 22 28 12 15 - - -
05/07:00pm 15.3 12.7 14.8 97 0.3 SE 22 28 12 15 - - -
05/06:46pm 15.3 12.7 14.8 97 0.3 SE 22 30 12 16 - - -
05/06:30pm 15.4 13.2 14.8 96 0.4 SE 20 28 11 15 - - -
05/06:14pm 15.6 13.5 14.8 95 0.5 SSE 19 26 10 14 - - -
05/06:00pm 15.7 13.4 14.6 93 0.6 SE 20 26 11 14 - - -
05/05:30pm 16.0 13.7 14.0 88 1.2 SE 19 22 10 12 - - -
05/05:00pm 16.2 13.1 13.5 84 1.6 SE 22 32 12 17 - - -
05/04:30pm 16.5 14.3 13.2 81 1.9 ESE 17 26 9 14 - - -
05/04:00pm 16.8 13.7 13.5 81 1.9 ESE 22 33 12 18 - - -
05/03:30pm 17.0 13.2 13.7 81 1.9 ESE 26 37 14 20 - - -
05/03:00pm 17.0 14.3 14.5 85 1.5 SE 22 33 12 18 - - -
05/02:30pm 16.5 13.3 14.3 87 1.3 SE 24 32 13 17 - - -
05/02:00pm 16.3 13.4 14.0 86 1.3 SE 22 30 12 16 - - -
05/01:30pm 16.3 13.5 14.3 88 1.2 ESE 22 35 12 19 - - -
05/01:00pm 16.2 13.4 15.4 95 0.5 ESE 24 35 13 19 - - -
05/12:30pm 15.3 12.0 15.0 98 0.2 SE 26 35 14 19 - - -
05/12:00pm 14.9 12.2 14.6 98 0.2 SE 22 28 12 15 - - -
05/11:30am 15.0 12.7 14.7 98 0.2 SE 20 32 11 17 - - -
05/11:00am 14.8 12.4 14.5 98 0.2 ESE 20 32 11 17 - - -
05/10:30am 15.1 13.0 14.8 98 0.2 ESE 19 28 10 15 - - -
05/10:00am 15.0 12.7 14.7 98 0.2 ESE 20 30 11 16 - - -
05/09:30am 14.9 13.5 14.6 98 0.2 ESE 15 22 8 12 - - -
05/09:00am 14.9 13.2 14.6 98 0.2 ESE 17 26 9 14 - - -
05/08:30am 14.6 12.4 14.3 98 0.2 ESE 19 28 10 15 - - -
05/08:00am 14.7 12.5 14.5 99 0.1 E 19 26 10 14 - - -
05/07:30am 14.7 12.9 14.5 99 0.1 ESE 17 26 9 14 - - -
05/07:00am 14.8 13.0 14.5 98 0.2 ESE 17 26 9 14 - - -
05/06:30am 15.0 13.3 14.7 98 0.2 ESE 17 24 9 13 - - -
05/06:00am 15.1 13.1 14.9 99 0.1 ESE 19 28 10 15 - - -
05/05:46am 15.0 12.8 14.8 99 0.1 ESE 20 30 11 16 - - -
05/05:30am 14.9 12.6 14.7 99 0.1 ESE 20 30 11 16 - - -
05/05:00am 14.8 13.4 14.6 99 0.1 ESE 15 20 8 11 - - -
05/04:30am 14.7 13.3 14.5 99 0.1 ESE 15 24 8 13 - - -
05/04:19am 14.6 13.2 14.4 99 0.1 E 15 22 8 12 - - -
05/04:00am 14.7 14.1 14.5 99 0.1 ESE 11 19 6 10 - - -
05/03:30am 14.7 13.3 14.5 99 0.1 ESE 15 22 8 12 - - -
05/03:20am 14.8 13.4 14.6 99 0.1 ESE 15 22 8 12 - - -
05/03:00am 14.9 12.8 14.7 99 0.1 E 19 26 10 14 - - -
05/02:45am 14.9 12.8 14.7 99 0.1 E 19 32 10 17 - - -
05/02:30am 14.8 12.7 14.6 99 0.1 E 19 28 10 15 - - -
05/02:23am 14.9 12.6 14.7 99 0.1 E 20 32 11 17 - - -
05/02:00am 15.0 12.4 14.8 99 0.1 ENE 22 32 12 17 - - -
05/01:30am 15.2 12.2 14.9 98 0.2 E 24 33 13 18 - - -
05/01:00am 15.3 13.4 15.1 99 0.1 E 19 32 10 17 - - -
05/12:30am 15.3 13.1 15.0 98 0.2 ESE 20 30 11 16 - - -
05/12:00am 15.5 13.4 15.2 98 0.2 E 20 33 11 18 - - -
 
Date/Time
WST
Temp
°C
App
Temp
°C
Dew
Point
Rel
Hum
%
Delta-T
°C
Wind Press
QNH
hPa
Press
MSL
hPa
Rain
since 9 am
mm
Dir
 
Spd
km/h
Gust
km/h
Spd
kts
Gust
kts
04/11:30pm 15.4 13.5 15.1 98 0.2 E 19 30 10 16 - - -
04/11:00pm 15.5 12.6 15.2 98 0.2 ESE 24 35 13 19 - - -
04/10:30pm 15.8 13.4 15.5 98 0.2 E 22 32 12 17 - - -
04/10:00pm 15.8 13.4 15.5 98 0.2 E 22 37 12 20 - - -
04/09:30pm 15.8 13.5 15.6 99 0.1 ESE 22 37 12 20 - - -
04/09:00pm 16.1 13.5 15.8 98 0.2 ESE 24 35 13 19 - - -
04/08:30pm 16.4 14.3 16.2 99 0.1 ESE 22 35 12 19 - - -
04/08:00pm 16.5 14.8 16.3 99 0.1 ESE 20 33 11 18 - - -
04/07:30pm 16.7 15.7 16.5 99 0.1 E 17 28 9 15 - - -
04/07:00pm 16.6 14.6 16.4 99 0.1 ESE 22 33 12 18 - - -
04/06:30pm 16.6 15.0 16.4 99 0.1 ESE 20 32 11 17 - - -
04/06:00pm 16.6 15.0 16.4 99 0.1 E 20 33 11 18 - - -
04/05:30pm 16.7 13.6 16.5 99 0.1 SE 28 46 15 25 - - -
04/05:25pm 16.8 13.7 16.6 99 0.1 SE 28 35 15 19 - - -
04/05:00pm 16.9 14.6 16.7 99 0.1 ESE 24 43 13 23 - - -
04/04:39pm 17.3 15.6 17.1 99 0.1 ESE 22 32 12 17 - - -
04/04:30pm 17.4 17.0 17.2 99 0.1 ESE 15 24 8 13 - - -
04/04:06pm 17.6 17.3 17.4 99 0.1 ESE 15 28 8 15 - - -
04/04:00pm 17.6 16.9 17.4 99 0.1 ESE 17 28 9 15 - - -
04/03:39pm 17.6 16.9 17.4 99 0.1 E 17 26 9 14 - - -
04/03:30pm 17.5 16.2 17.2 98 0.2 ESE 20 32 11 17 - - -
04/03:00pm 17.7 16.1 17.4 98 0.2 SE 22 28 12 15 - - -
04/02:30pm 17.7 16.5 17.5 99 0.1 SE 20 32 11 17 - - -
04/02:00pm 17.8 16.6 17.6 99 0.1 SE 20 30 11 16 - - -
04/01:30pm 17.6 16.5 17.4 99 0.1 ESE 19 28 10 15 - - -
04/01:00pm 17.5 16.2 17.3 99 0.1 ESE 20 28 11 15 - - -
04/12:53pm 17.7 17.1 17.5 99 0.1 ESE 17 28 9 15 - - -
04/12:37pm 17.7 17.0 17.4 98 0.2 ESE 17 24 9 13 - - -
04/12:30pm 17.7 17.0 17.4 98 0.2 ESE 17 28 9 15 - - -
04/12:00pm 17.8 18.0 17.6 99 0.1 ESE 13 22 7 12 - - -
04/11:30am 17.8 17.2 17.5 98 0.2 ESE 17 24 9 13 - - -
04/11:00am 17.9 16.8 17.7 99 0.1 SE 20 28 11 15 - - -
04/10:30am 17.7 16.1 17.4 98 0.2 ESE 22 30 12 16 - - -
04/10:00am 18.1 18.0 17.9 99 0.1 ESE 15 24 8 13 - - -
04/09:30am 17.9 17.4 17.7 99 0.1 ESE 17 26 9 14 - - -
04/09:00am 17.7 17.8 17.5 99 0.1 ESE 13 20 7 11 - - -
04/08:30am 17.6 17.3 17.3 98 0.2 ESE 15 19 8 10 - - -
04/08:13am 17.5 17.9 17.2 98 0.2 ESE 11 15 6 8 - - -
04/08:03am 17.5 17.9 17.2 98 0.2 ESE 11 19 6 10 - - -
04/08:00am 17.5 17.9 17.2 98 0.2 ESE 11 17 6 9 - - -
04/07:30am 17.5 17.5 17.2 98 0.2 ESE 13 20 7 11 - - -
04/07:23am 17.4 17.7 17.1 98 0.2 ESE 11 20 6 11 - - -
04/07:00am 17.3 17.6 17.0 98 0.2 ESE 11 19 6 10 - - -
04/06:30am 17.3 17.2 17.0 98 0.2 ESE 13 20 7 11 - - -
04/06:03am 17.3 16.8 17.0 98 0.2 ESE 15 22 8 12 - - -
04/06:00am 17.4 17.4 17.1 98 0.2 ESE 13 22 7 12 - - -
04/05:30am 17.6 17.5 17.0 96 0.4 ESE 13 20 7 11 - - -
04/05:16am 17.6 17.6 17.1 97 0.3 ESE 13 19 7 10 - - -
04/05:00am 17.4 16.9 16.9 97 0.3 ESE 15 24 8 13 - - -
04/04:30am 17.5 16.6 16.9 96 0.4 ESE 17 26 9 14 - - -
04/04:00am 17.6 15.8 15.9 90 1.0 E 20 32 11 17 - - -
04/03:30am 17.8 16.0 15.6 87 1.3 E 19 26 10 14 - - -
04/03:00am 17.9 16.9 15.7 87 1.3 E 15 20 8 11 - - -
04/02:30am 17.9 16.9 15.7 87 1.3 ESE 15 22 8 12 - - -
04/02:00am 18.0 16.5 15.4 85 1.6 E 17 26 9 14 - - -
04/01:30am 18.1 17.1 15.5 85 1.6 E 15 30 8 16 - - -
04/01:00am 18.0 16.6 15.6 86 1.4 E 17 28 9 15 - - -
04/12:30am 18.1 17.1 15.7 86 1.4 E 15 20 8 11 - - -
04/12:00am 18.1 16.3 15.5 85 1.6 ESE 19 28 10 15 - - -
 
Date/Time
WST
Temp
°C
App
Temp
°C
Dew
Point
Rel
Hum
%
Delta-T
°C
Wind Press
QNH
hPa
Press
MSL
hPa
Rain
since 9 am
mm
Dir
 
Spd
km/h
Gust
km/h
Spd
kts
Gust
kts
03/11:30pm 18.1 15.7 15.5 85 1.6 ESE 22 35 12 19 - - -
03/11:00pm 18.0 15.7 15.8 87 1.3 ESE 22 35 12 19 - - -
03/10:30pm 18.1 16.3 15.5 85 1.6 ESE 19 26 10 14 - - -
03/10:00pm 18.4 16.6 15.6 84 1.7 ESE 19 30 10 16 - - -
03/09:30pm 18.5 16.2 15.6 83 1.7 SE 22 32 12 17 - - -
03/09:00pm 18.6 16.8 15.5 82 1.9 ESE 19 26 10 14 - - -
03/08:30pm 18.6 16.6 15.5 82 1.9 ESE 20 32 11 17 - - -
03/08:00pm 18.7 15.6 15.6 82 1.9 SE 26 33 14 18 - - -
03/07:30pm 18.7 16.6 16.1 85 1.6 SE 22 33 12 18 - - -

Other Formats:

Comma delimited format used in spreadsheet applications
http://www.bom.gov.au/fwo/IDW60801/IDW60801.95448.axf

JavaScript Object Notation format (JSON) in row-major order
http://www.bom.gov.au/fwo/IDW60801/IDW60801.95448.json